Time;durP1;ratioP1;P1;durP2;ratioP2;P2;SDS_P1;SDS_P2;PMS_P1;PMS_P2;Temp;Humidity;BMP_temperature;BMP_pressure;BME280_temperature;BME280_humidity;BME280_pressure;Samples;Min_cycle;Max_cycle;Signal;HPM_P1;HPM_P2
2022/11/07 00:01:35;;;;;;;;;15.75;12.75;;;;;;;;5046079;28;51161;-52
2022/11/07 00:04:19;;;;;;;;;20.00;13.00;;;;;;;;5048433;28;51535;-53
2022/11/07 00:07:04;;;;;;;;;14.75;11.75;;;;;;;;5046113;28;51536;-49
2022/11/07 00:09:48;;;;;;;;;13.75;11.00;;;;;;;;5045124;28;52497;-52
2022/11/07 00:12:36;;;;;;;;;13.75;10.75;;;;;;;;5043726;28;51447;-51
2022/11/07 00:15:20;;;;;;;;;17.00;12.50;;;;;;;;5047107;28;51193;-48
2022/11/07 00:18:05;;;;;;;;;15.00;13.00;;;;;;;;5049014;28;51128;-50
2022/11/07 00:20:49;;;;;;;;;20.00;13.25;;;;;;;;5044217;28;50998;-50
2022/11/07 00:23:33;;;;;;;;;15.25;12.75;;;;;;;;5046926;28;51159;-52
2022/11/07 00:26:18;;;;;;;;;14.50;12.00;;;;;;;;5045744;28;51124;-49
2022/11/07 00:29:03;;;;;;;;;16.00;13.25;;;;;;;;5041921;28;51348;-50
2022/11/07 00:31:47;;;;;;;;;12.00;11.50;;;;;;;;5041516;28;51081;-50
2022/11/07 00:34:34;;;;;;;;;14.50;12.25;;;;;;;;5048503;28;51566;-51
2022/11/07 00:37:18;;;;;;;;;11.50;9.25;;;;;;;;5044242;28;51432;-52
2022/11/07 00:40:02;;;;;;;;;13.25;10.75;;;;;;;;5041987;28;51167;-49
2022/11/07 00:42:47;;;;;;;;;15.75;13.00;;;;;;;;5044338;28;52745;-53
2022/11/07 00:45:31;;;;;;;;;12.75;11.75;;;;;;;;5035299;28;51274;-49
2022/11/07 00:48:16;;;;;;;;;13.50;11.25;;;;;;;;5041251;28;51669;-51
2022/11/07 00:51:04;;;;;;;;;13.00;12.00;;;;;;;;5045872;28;51186;-49
2022/11/07 00:53:48;;;;;;;;;14.00;12.00;;;;;;;;5040876;28;51187;-49
2022/11/07 00:56:32;;;;;;;;;20.00;13.00;;;;;;;;5046020;28;51395;-50
2022/11/07 00:59:17;;;;;;;;;17.75;15.25;;;;;;;;5047633;28;52831;-52
2022/11/07 01:02:01;;;;;;;;;16.50;10.75;;;;;;;;5041421;28;51293;-53
2022/11/07 01:07:48;;;;;;;;;15.00;12.00;;;;;;;;5045784;28;51061;-50
2022/11/07 01:10:33;;;;;;;;;11.50;10.75;;;;;;;;5045413;28;51600;-52
2022/11/07 01:13:17;;;;;;;;;13.00;11.75;;;;;;;;5044461;28;51175;-52
2022/11/07 01:16:02;;;;;;;;;12.50;10.75;;;;;;;;5045075;28;51078;-49
2022/11/07 01:18:46;;;;;;;;;13.75;13.25;;;;;;;;5041992;28;51037;-49
2022/11/07 01:21:31;;;;;;;;;15.50;11.75;;;;;;;;5041476;28;51487;-51
2022/11/07 01:24:16;;;;;;;;;13.00;11.50;;;;;;;;5041348;28;51128;-53
2022/11/07 01:27:00;;;;;;;;;14.50;13.25;;;;;;;;5046216;28;51206;-53
2022/11/07 01:29:44;;;;;;;;;15.75;13.00;;;;;;;;5040672;28;51118;-53
2022/11/07 01:32:29;;;;;;;;;15.75;11.25;;;;;;;;5044372;28;51072;-50
2022/11/07 01:35:14;;;;;;;;;19.25;11.75;;;;;;;;5044167;28;51139;-50
2022/11/07 01:37:58;;;;;;;;;11.75;8.50;;;;;;;;5040753;28;51566;-51
2022/11/07 01:43:51;;;;;;;;;19.00;13.00;;;;;;;;5039716;28;51208;-50
2022/11/07 01:46:39;;;;;;;;;13.25;11.75;;;;;;;;5039615;28;51033;-51
2022/11/07 01:49:31;;;;;;;;;18.75;13.25;;;;;;;;5044791;28;51108;-50
2022/11/07 01:52:35;;;;;;;;;15.75;13.00;;;;;;;;5047805;28;51190;-46
2022/11/07 01:55:19;;;;;;;;;14.25;13.00;;;;;;;;5041633;28;51366;-52
2022/11/07 01:58:08;;;;;;;;;17.00;13.75;;;;;;;;5046328;28;51108;-52
2022/11/07 02:00:52;;;;;;;;;12.00;9.50;;;;;;;;5040251;28;51455;-51
2022/11/07 02:03:36;;;;;;;;;13.50;12.50;;;;;;;;5044614;28;51539;-51
2022/11/07 02:06:28;;;;;;;;;15.00;11.25;;;;;;;;5039552;28;51092;-49
2022/11/07 02:09:12;;;;;;;;;13.00;9.50;;;;;;;;5045681;28;51109;-51
2022/11/07 02:11:59;;;;;;;;;13.25;10.25;;;;;;;;5041612;28;51505;-51
2022/11/07 02:14:44;;;;;;;;;16.75;14.00;;;;;;;;5045863;28;51063;-52
2022/11/07 02:17:28;;;;;;;;;16.25;13.25;;;;;;;;5041686;28;51511;-50
2022/11/07 02:20:13;;;;;;;;;13.75;12.50;;;;;;;;5049823;28;51111;-50
2022/11/07 02:23:04;;;;;;;;;15.00;13.25;;;;;;;;5044241;28;51072;-50
2022/11/07 02:25:49;;;;;;;;;13.75;11.00;;;;;;;;5049934;28;51365;-51
2022/11/07 02:28:35;;;;;;;;;13.00;10.75;;;;;;;;5048608;28;51594;-52
2022/11/07 02:31:19;;;;;;;;;15.75;12.25;;;;;;;;5046608;28;51183;-50
2022/11/07 02:34:04;;;;;;;;;15.25;12.00;;;;;;;;5043688;28;51138;-48
2022/11/07 02:36:48;;;;;;;;;18.75;12.50;;;;;;;;5040607;28;51135;-55
2022/11/07 02:39:33;;;;;;;;;20.25;11.75;;;;;;;;5051000;28;51145;-48
2022/11/07 02:42:17;;;;;;;;;12.00;11.50;;;;;;;;5056916;28;51081;-52
2022/11/07 02:45:01;;;;;;;;;15.00;12.50;;;;;;;;5042802;28;51112;-51
2022/11/07 02:47:46;;;;;;;;;14.50;11.50;;;;;;;;5045544;28;51137;-54
2022/11/07 02:50:30;;;;;;;;;15.75;14.75;;;;;;;;5048841;28;51543;-54
2022/11/07 02:53:15;;;;;;;;;18.25;15.50;;;;;;;;5047897;28;51508;-49
2022/11/07 02:55:59;;;;;;;;;33.75;25.75;;;;;;;;5053052;28;51131;-52
2022/11/07 02:58:43;;;;;;;;;37.50;29.50;;;;;;;;5053594;28;51096;-53
2022/11/07 03:01:28;;;;;;;;;36.50;32.50;;;;;;;;5041475;28;51172;-53
2022/11/07 03:04:12;;;;;;;;;43.25;33.00;;;;;;;;5053283;28;51116;-50
2022/11/07 03:06:57;;;;;;;;;42.25;34.25;;;;;;;;5055663;28;51353;-49
2022/11/07 03:09:41;;;;;;;;;44.75;35.25;;;;;;;;5056793;28;51205;-53
2022/11/07 03:12:26;;;;;;;;;46.75;38.50;;;;;;;;5056294;28;51075;-50
2022/11/07 03:15:11;;;;;;;;;49.50;39.00;;;;;;;;5046035;28;51468;-47
2022/11/07 03:17:57;;;;;;;;;47.50;38.00;;;;;;;;5050706;28;51205;-47
2022/11/07 03:20:41;;;;;;;;;46.50;37.50;;;;;;;;5044615;28;51031;-50
2022/11/07 03:23:26;;;;;;;;;43.75;36.00;;;;;;;;5044271;28;51060;-50
2022/11/07 03:26:10;;;;;;;;;47.25;38.00;;;;;;;;5048862;28;51017;-50
2022/11/07 03:28:55;;;;;;;;;41.75;36.75;;;;;;;;5050073;28;51360;-50
2022/11/07 03:31:39;;;;;;;;;43.50;33.50;;;;;;;;5054070;28;51113;-49
2022/11/07 03:34:24;;;;;;;;;39.75;32.00;;;;;;;;5049278;28;51236;-49
2022/11/07 03:37:08;;;;;;;;;45.00;34.75;;;;;;;;5048534;28;51108;-50
2022/11/07 03:39:53;;;;;;;;;38.00;31.50;;;;;;;;5048916;28;51176;-51
2022/11/07 03:42:38;;;;;;;;;44.00;35.25;;;;;;;;5048352;28;51526;-50
2022/11/07 03:45:22;;;;;;;;;44.50;37.00;;;;;;;;5056227;28;51145;-53
2022/11/07 03:48:07;;;;;;;;;39.75;33.00;;;;;;;;5049905;28;51143;-50
2022/11/07 03:50:51;;;;;;;;;31.75;30.00;;;;;;;;5039563;28;52684;-50
2022/11/07 03:53:36;;;;;;;;;41.25;32.00;;;;;;;;5040678;28;51139;-51
2022/11/07 03:56:20;;;;;;;;;44.25;30.25;;;;;;;;5045524;28;51093;-52
2022/11/07 03:59:05;;;;;;;;;38.75;32.50;;;;;;;;5054747;28;51162;-51
2022/11/07 04:01:49;;;;;;;;;35.75;32.00;;;;;;;;5052184;28;51211;-51
2022/11/07 04:04:34;;;;;;;;;36.50;30.75;;;;;;;;5054695;28;51447;-47
2022/11/07 04:07:18;;;;;;;;;34.25;32.25;;;;;;;;5048332;28;51758;-53
2022/11/07 04:10:02;;;;;;;;;34.25;31.50;;;;;;;;5051800;28;51063;-51
2022/11/07 04:18:52;;;;;;;;;39.25;34.00;;;;;;;;5053266;28;51076;-48
2022/11/07 04:21:37;;;;;;;;;41.00;32.75;;;;;;;;5043116;28;51541;-50
2022/11/07 04:24:21;;;;;;;;;33.50;31.25;;;;;;;;5044601;28;51116;-52
2022/11/07 04:30:25;;;;;;;;;41.00;31.75;;;;;;;;5044912;28;51536;-52
2022/11/07 04:33:09;;;;;;;;;35.00;28.75;;;;;;;;5043848;28;51096;-50
2022/11/07 04:35:53;;;;;;;;;39.00;34.75;;;;;;;;5042511;28;52563;-49
2022/11/07 04:38:38;;;;;;;;;44.00;33.50;;;;;;;;5044276;28;51137;-50
2022/11/07 04:41:23;;;;;;;;;40.25;34.00;;;;;;;;5041959;28;51401;-49
2022/11/07 04:44:07;;;;;;;;;45.50;35.50;;;;;;;;5051505;28;51287;-51
2022/11/07 04:46:52;;;;;;;;;41.25;32.50;;;;;;;;5046667;28;51141;-51
2022/11/07 04:49:36;;;;;;;;;37.50;31.50;;;;;;;;5039700;28;51144;-53
2022/11/07 04:52:21;;;;;;;;;38.25;30.50;;;;;;;;5054911;28;51073;-52
2022/11/07 04:55:06;;;;;;;;;34.50;30.75;;;;;;;;5041102;28;51180;-50
2022/11/07 04:57:50;;;;;;;;;33.75;31.50;;;;;;;;5040730;28;51634;-49
2022/11/07 05:00:34;;;;;;;;;44.50;33.25;;;;;;;;5046774;28;51385;-51
2022/11/07 05:03:18;;;;;;;;;45.00;35.25;;;;;;;;5039845;28;51053;-50
2022/11/07 05:06:03;;;;;;;;;38.00;32.25;;;;;;;;5042927;28;51585;-51
2022/11/07 05:08:48;;;;;;;;;44.50;35.75;;;;;;;;5043054;28;51185;-49
2022/11/07 05:11:33;;;;;;;;;45.75;36.75;;;;;;;;5043161;28;51163;-51
2022/11/07 05:14:17;;;;;;;;;43.00;34.25;;;;;;;;5045658;28;51042;-48
2022/11/07 05:17:02;;;;;;;;;49.75;38.25;;;;;;;;5045189;28;51069;-49
2022/11/07 05:19:47;;;;;;;;;51.50;41.25;;;;;;;;5046703;28;51372;-49
2022/11/07 05:25:33;;;;;;;;;55.00;43.00;;;;;;;;5037574;28;51176;-50
2022/11/07 05:28:23;;;;;;;;;53.50;43.50;;;;;;;;5040495;28;51041;-51
2022/11/07 05:31:07;;;;;;;;;57.00;43.50;;;;;;;;5040836;28;51124;-51
2022/11/07 05:33:52;;;;;;;;;57.75;43.50;;;;;;;;5041613;28;51054;-51
2022/11/07 05:36:36;;;;;;;;;48.50;39.25;;;;;;;;5048173;28;51594;-51
2022/11/07 05:39:22;;;;;;;;;51.00;40.75;;;;;;;;5039450;28;51079;-49
2022/11/07 05:42:06;;;;;;;;;49.75;38.50;;;;;;;;5049253;28;51061;-49
2022/11/07 05:44:51;;;;;;;;;52.50;43.50;;;;;;;;5038168;28;51084;-51
2022/11/07 05:47:35;;;;;;;;;51.00;41.00;;;;;;;;5047196;28;51015;-52
2022/11/07 05:50:19;;;;;;;;;57.25;44.75;;;;;;;;5038980;28;51132;-53
2022/11/07 05:53:04;;;;;;;;;57.25;45.50;;;;;;;;5051336;28;51197;-50
2022/11/07 05:55:48;;;;;;;;;59.00;46.25;;;;;;;;5058595;28;51153;-49
2022/11/07 05:58:33;;;;;;;;;61.50;48.50;;;;;;;;5056178;28;51009;-52
2022/11/07 06:01:17;;;;;;;;;64.75;50.50;;;;;;;;5043605;28;51061;-50
2022/11/07 06:04:05;;;;;;;;;60.00;47.25;;;;;;;;5047067;28;51206;-48
2022/11/07 06:06:49;;;;;;;;;61.50;48.25;;;;;;;;5052498;28;51418;-50
2022/11/07 06:09:34;;;;;;;;;68.50;53.00;;;;;;;;5057381;28;51186;-51
2022/11/07 06:12:18;;;;;;;;;63.00;48.25;;;;;;;;5047815;28;52034;-52
2022/11/07 06:15:03;;;;;;;;;59.75;46.00;;;;;;;;5055654;28;51440;-50
2022/11/07 06:17:47;;;;;;;;;49.75;40.00;;;;;;;;5042735;28;51124;-48
2022/11/07 06:20:32;;;;;;;;;52.00;41.25;;;;;;;;5051453;28;51418;-50
2022/11/07 06:23:17;;;;;;;;;55.25;45.00;;;;;;;;5058663;28;51519;-50
2022/11/07 06:26:01;;;;;;;;;53.00;44.00;;;;;;;;5044778;28;51662;-50
2022/11/07 06:28:46;;;;;;;;;55.00;42.75;;;;;;;;5042323;28;51096;-47
2022/11/07 06:31:30;;;;;;;;;53.75;43.75;;;;;;;;5040895;28;51252;-48
2022/11/07 06:34:14;;;;;;;;;55.75;43.00;;;;;;;;5042471;28;51652;-52
2022/11/07 06:36:59;;;;;;;;;56.75;44.50;;;;;;;;5044361;28;51215;-52
2022/11/07 06:39:43;;;;;;;;;54.50;42.50;;;;;;;;5056319;28;51542;-51
2022/11/07 06:42:28;;;;;;;;;55.25;43.50;;;;;;;;5051403;28;51209;-52
2022/11/07 06:45:12;;;;;;;;;49.00;38.25;;;;;;;;5045068;28;51536;-51
2022/11/07 06:47:56;;;;;;;;;51.00;40.25;;;;;;;;5045061;28;51395;-47
2022/11/07 06:50:41;;;;;;;;;48.00;39.00;;;;;;;;5046772;28;51616;-50
2022/11/07 06:53:26;;;;;;;;;54.75;43.50;;;;;;;;5057331;28;51134;-49
2022/11/07 06:56:12;;;;;;;;;48.50;39.75;;;;;;;;5049491;28;51143;-51
2022/11/07 06:58:56;;;;;;;;;54.25;42.25;;;;;;;;5059734;28;51145;-49
2022/11/07 07:01:41;;;;;;;;;53.00;41.25;;;;;;;;5056477;28;51045;-46
2022/11/07 07:04:25;;;;;;;;;55.50;45.25;;;;;;;;5046374;28;52718;-46
2022/11/07 07:07:10;;;;;;;;;53.50;41.50;;;;;;;;5047731;28;51133;-51
2022/11/07 07:09:54;;;;;;;;;57.50;44.00;;;;;;;;5043859;28;51175;-48
2022/11/07 07:12:39;;;;;;;;;58.25;43.75;;;;;;;;5041050;28;51215;-49
2022/11/07 07:15:23;;;;;;;;;50.75;42.00;;;;;;;;5053250;28;51494;-49
2022/11/07 07:18:08;;;;;;;;;49.00;39.75;;;;;;;;5039263;28;51163;-53
2022/11/07 07:21:00;;;;;;;;;53.00;39.25;;;;;;;;5043891;28;51144;-47
2022/11/07 07:23:44;;;;;;;;;50.50;37.50;;;;;;;;5044709;28;51144;-51
2022/11/07 07:26:29;;;;;;;;;48.25;38.75;;;;;;;;5040423;28;52089;-51
2022/11/07 07:29:13;;;;;;;;;50.00;40.75;;;;;;;;5048795;28;51086;-49
2022/11/07 07:31:57;;;;;;;;;51.50;41.00;;;;;;;;5047619;28;51117;-47
2022/11/07 07:34:42;;;;;;;;;52.25;42.75;;;;;;;;5057240;28;51485;-48
2022/11/07 07:37:26;;;;;;;;;53.75;43.00;;;;;;;;5048038;28;51305;-52
2022/11/07 07:40:11;;;;;;;;;52.50;41.75;;;;;;;;5046098;28;51044;-51
2022/11/07 07:42:55;;;;;;;;;51.50;42.00;;;;;;;;5053214;28;51079;-49
2022/11/07 07:45:39;;;;;;;;;47.00;38.00;;;;;;;;5040743;28;51053;-53
2022/11/07 07:48:24;;;;;;;;;50.00;39.75;;;;;;;;5057808;28;51100;-51
2022/11/07 07:51:08;;;;;;;;;47.75;39.00;;;;;;;;5043729;28;51589;-51
2022/11/07 07:53:53;;;;;;;;;43.00;34.75;;;;;;;;5039906;28;51116;-53
2022/11/07 07:56:37;;;;;;;;;33.00;28.25;;;;;;;;5046571;28;51152;-49
2022/11/07 07:59:22;;;;;;;;;43.50;34.25;;;;;;;;5040450;28;51132;-49
2022/11/07 08:02:09;;;;;;;;;42.75;34.25;;;;;;;;5037971;28;51201;-51
2022/11/07 08:04:53;;;;;;;;;45.25;35.25;;;;;;;;5041814;28;51208;-48
2022/11/07 08:07:47;;;;;;;;;45.75;36.50;;;;;;;;5046129;28;52375;-50
2022/11/07 08:10:32;;;;;;;;;37.50;32.25;;;;;;;;5043902;28;51148;-51
2022/11/07 08:13:16;;;;;;;;;38.00;29.25;;;;;;;;5024624;28;51140;-51
2022/11/07 08:16:02;;;;;;;;;32.50;30.00;;;;;;;;5037410;28;51599;-51
2022/11/07 08:18:46;;;;;;;;;37.75;31.00;;;;;;;;5044923;28;51110;-53
2022/11/07 08:21:30;;;;;;;;;33.00;28.50;;;;;;;;5053056;28;51122;-49
2022/11/07 08:24:15;;;;;;;;;40.25;32.00;;;;;;;;5048131;28;52119;-54
2022/11/07 08:26:59;;;;;;;;;40.25;33.00;;;;;;;;5037583;28;51440;-54
2022/11/07 08:29:44;;;;;;;;;45.00;36.00;;;;;;;;5059785;28;51498;-55
2022/11/07 08:32:29;;;;;;;;;38.00;30.50;;;;;;;;5044328;28;51073;-51
2022/11/07 08:35:13;;;;;;;;;29.25;25.25;;;;;;;;5056878;28;51424;-50
2022/11/07 08:37:58;;;;;;;;;38.25;30.50;;;;;;;;5056492;28;51149;-52
2022/11/07 08:40:42;;;;;;;;;35.00;30.25;;;;;;;;5050880;28;51117;-53
2022/11/07 08:43:26;;;;;;;;;27.50;25.50;;;;;;;;5040446;28;51141;-49
2022/11/07 08:46:11;;;;;;;;;32.25;26.50;;;;;;;;5057788;28;50989;-49
2022/11/07 08:48:56;;;;;;;;;27.25;25.00;;;;;;;;5043991;28;50990;-53
2022/11/07 08:51:40;;;;;;;;;32.00;27.75;;;;;;;;5056999;28;51068;-51
2022/11/07 08:54:25;;;;;;;;;33.75;28.25;;;;;;;;5055387;28;51392;-53
2022/11/07 08:57:09;;;;;;;;;34.25;26.25;;;;;;;;5055663;28;51019;-53
2022/11/07 08:59:54;;;;;;;;;27.75;27.00;;;;;;;;5053257;28;51410;-49
2022/11/07 09:02:38;;;;;;;;;32.00;25.00;;;;;;;;5053890;28;51090;-48
2022/11/07 09:05:23;;;;;;;;;22.25;17.25;;;;;;;;5040033;28;51073;-50
2022/11/07 09:08:07;;;;;;;;;26.50;24.25;;;;;;;;5048253;28;51103;-53
2022/11/07 09:10:51;;;;;;;;;23.75;21.75;;;;;;;;5052321;28;51141;-50
2022/11/07 09:13:36;;;;;;;;;30.50;26.75;;;;;;;;5046859;28;51342;-50
2022/11/07 09:16:21;;;;;;;;;27.00;23.25;;;;;;;;5039664;28;51127;-49
2022/11/07 09:19:05;;;;;;;;;31.25;27.25;;;;;;;;5040144;28;52356;-53
2022/11/07 09:21:50;;;;;;;;;25.75;24.50;;;;;;;;5043295;28;51200;-47
2022/11/07 09:24:34;;;;;;;;;26.75;25.00;;;;;;;;5043655;28;51192;-51
2022/11/07 09:27:19;;;;;;;;;27.75;26.25;;;;;;;;5041000;28;51214;-49
2022/11/07 09:30:04;;;;;;;;;26.75;25.00;;;;;;;;5042542;28;51189;-48
2022/11/07 09:32:48;;;;;;;;;18.25;18.25;;;;;;;;5050623;28;51139;-51
2022/11/07 09:35:33;;;;;;;;;25.00;22.25;;;;;;;;5045977;28;51152;-52
2022/11/07 09:38:17;;;;;;;;;27.75;23.00;;;;;;;;5042277;28;51511;-51
2022/11/07 09:41:07;;;;;;;;;26.25;18.50;;;;;;;;5046191;28;51101;-48
2022/11/07 09:44:05;;;;;;;;;26.50;23.75;;;;;;;;5062129;28;51183;-51
2022/11/07 09:46:52;;;;;;;;;33.25;29.25;;;;;;;;5052755;28;51304;-50
2022/11/07 09:49:42;;;;;;;;;31.75;28.25;;;;;;;;5052308;28;51539;-47
2022/11/07 09:52:35;;;;;;;;;25.50;23.50;;;;;;;;5058433;28;51129;-49
2022/11/07 09:55:22;;;;;;;;;34.00;28.50;;;;;;;;5055069;28;51167;-51
2022/11/07 09:58:39;;;;;;;;;19.75;16.75;;;;;;;;5057927;28;51170;-50
2022/11/07 10:01:27;;;;;;;;;27.25;22.00;;;;;;;;5029928;28;51042;-51
2022/11/07 10:04:16;;;;;;;;;27.75;24.50;;;;;;;;5063283;28;51415;-51
2022/11/07 10:07:08;;;;;;;;;20.75;20.50;;;;;;;;5047755;28;51160;-54
2022/11/07 10:10:07;;;;;;;;;27.25;21.25;;;;;;;;5060621;28;51253;-53
2022/11/07 10:12:51;;;;;;;;;18.75;18.75;;;;;;;;5049478;28;51094;-51
2022/11/07 10:15:44;;;;;;;;;22.25;16.50;;;;;;;;5046731;28;51375;-50
2022/11/07 10:18:41;;;;;;;;;21.75;18.25;;;;;;;;5044618;28;51177;-49
2022/11/07 10:21:32;;;;;;;;;14.75;12.50;;;;;;;;5059021;28;52485;-50
2022/11/07 10:24:19;;;;;;;;;18.25;16.75;;;;;;;;5058913;28;51114;-50
2022/11/07 10:27:07;;;;;;;;;10.25;8.75;;;;;;;;5060101;28;51017;-51
2022/11/07 10:29:53;;;;;;;;;20.50;18.50;;;;;;;;5062300;28;51337;-47
2022/11/07 10:32:40;;;;;;;;;14.25;13.75;;;;;;;;5054841;28;51263;-51
2022/11/07 10:35:28;;;;;;;;;25.25;19.25;;;;;;;;5042282;28;51394;-51
2022/11/07 10:38:18;;;;;;;;;18.25;15.25;;;;;;;;5048915;28;50988;-49
2022/11/07 10:41:02;;;;;;;;;15.00;13.75;;;;;;;;5041481;28;51342;-52
2022/11/07 10:44:07;;;;;;;;;22.25;16.75;;;;;;;;5056327;28;51141;-50
2022/11/07 10:46:51;;;;;;;;;25.75;20.75;;;;;;;;5057624;28;51458;-53
2022/11/07 10:49:35;;;;;;;;;22.25;18.50;;;;;;;;5043277;28;51187;-53
2022/11/07 10:52:20;;;;;;;;;19.50;17.50;;;;;;;;5040928;28;51291;-48
2022/11/07 10:55:08;;;;;;;;;21.00;17.25;;;;;;;;5040894;28;51501;-53
2022/11/07 10:57:55;;;;;;;;;20.50;13.00;;;;;;;;5042676;28;51193;-50
2022/11/07 11:00:42;;;;;;;;;22.25;17.50;;;;;;;;5041299;28;51232;-47
2022/11/07 11:03:29;;;;;;;;;18.00;13.50;;;;;;;;5048679;28;51241;-48
2022/11/07 11:06:16;;;;;;;;;21.75;15.50;;;;;;;;5040451;28;51403;-52
2022/11/07 11:09:11;;;;;;;;;17.75;15.50;;;;;;;;5049770;28;51074;-50
2022/11/07 11:11:55;;;;;;;;;26.00;20.75;;;;;;;;5047946;28;51471;-49
2022/11/07 11:14:40;;;;;;;;;21.50;18.50;;;;;;;;5050662;28;51117;-50
2022/11/07 11:17:25;;;;;;;;;21.00;17.00;;;;;;;;5052734;28;51156;-51
2022/11/07 11:20:25;;;;;;;;;17.00;13.75;;;;;;;;5059822;28;51548;-52
2022/11/07 11:23:17;;;;;;;;;21.25;15.25;;;;;;;;5053666;28;51212;-52
2022/11/07 11:26:06;;;;;;;;;16.75;14.75;;;;;;;;5046738;28;51173;-51
2022/11/07 11:28:56;;;;;;;;;18.25;16.75;;;;;;;;5052473;28;51064;-52
2022/11/07 11:31:47;;;;;;;;;16.75;14.50;;;;;;;;5046952;28;51435;-49
2022/11/07 11:34:39;;;;;;;;;17.25;14.75;;;;;;;;5058505;28;51293;-48
2022/11/07 11:37:26;;;;;;;;;15.00;10.00;;;;;;;;5045593;28;51187;-49
2022/11/07 11:40:18;;;;;;;;;16.25;14.25;;;;;;;;5053905;28;51130;-53
2022/11/07 11:43:10;;;;;;;;;17.00;12.75;;;;;;;;5044321;28;51461;-48
2022/11/07 11:45:58;;;;;;;;;19.25;16.75;;;;;;;;5046798;28;51084;-47
2022/11/07 11:48:59;;;;;;;;;16.00;15.25;;;;;;;;5050186;28;51138;-52
2022/11/07 11:51:46;;;;;;;;;14.00;11.00;;;;;;;;5042164;28;52218;-47
2022/11/07 11:54:31;;;;;;;;;18.75;15.50;;;;;;;;5059063;28;51327;-50
2022/11/07 11:57:24;;;;;;;;;19.00;14.25;;;;;;;;5051156;28;51147;-53
2022/11/07 12:00:16;;;;;;;;;17.25;13.00;;;;;;;;5047125;28;51157;-53
2022/11/07 12:03:18;;;;;;;;;12.50;10.50;;;;;;;;5059195;28;51474;-53
2022/11/07 12:06:01;;;;;;;;;18.50;16.75;;;;;;;;5053256;28;51100;-52
2022/11/07 12:08:52;;;;;;;;;15.25;15.00;;;;;;;;5046274;28;51104;-48
2022/11/07 12:11:52;;;;;;;;;11.75;11.75;;;;;;;;5058838;28;50985;-49
2022/11/07 12:14:39;;;;;;;;;15.75;13.25;;;;;;;;5043802;28;51081;-55
2022/11/07 12:17:43;;;;;;;;;15.25;14.00;;;;;;;;5049549;28;52167;-52
2022/11/07 12:20:28;;;;;;;;;15.75;11.75;;;;;;;;5056042;28;51029;-48
2022/11/07 12:23:28;;;;;;;;;12.75;11.25;;;;;;;;5059225;28;51107;-48
2022/11/07 12:26:12;;;;;;;;;12.75;12.50;;;;;;;;5056394;28;51098;-52
2022/11/07 12:29:14;;;;;;;;;13.75;12.50;;;;;;;;5058486;28;51330;-52
2022/11/07 12:32:17;;;;;;;;;17.25;13.50;;;;;;;;5053581;28;51209;-54
2022/11/07 12:35:01;;;;;;;;;16.00;13.00;;;;;;;;5056449;28;51095;-49
2022/11/07 12:38:04;;;;;;;;;16.00;13.00;;;;;;;;5059818;28;51340;-51
2022/11/07 12:40:56;;;;;;;;;16.50;13.50;;;;;;;;5057543;28;51111;-48
2022/11/07 12:43:46;;;;;;;;;2.00;0.00;;;;;;;;5035060;28;51121;-49
2022/11/07 12:46:36;;;;;;;;;16.75;13.00;;;;;;;;5029235;28;51688;-50
2022/11/07 12:49:31;;;;;;;;;11.75;6.00;;;;;;;;5051268;28;51092;-47
2022/11/07 12:52:35;;;;;;;;;14.75;12.50;;;;;;;;5042665;28;51125;-50
2022/11/07 12:55:19;;;;;;;;;15.00;12.50;;;;;;;;5043471;28;51434;-50
2022/11/07 12:58:04;;;;;;;;;12.50;11.00;;;;;;;;5052357;28;51129;-50
2022/11/07 13:00:49;;;;;;;;;11.75;8.75;;;;;;;;5045511;28;51136;-48
2022/11/07 13:03:49;;;;;;;;;15.75;12.50;;;;;;;;5050950;28;52633;-52
2022/11/07 13:06:51;;;;;;;;;16.00;11.50;;;;;;;;5059232;28;51206;-46
2022/11/07 13:09:38;;;;;;;;;14.00;11.25;;;;;;;;5060414;28;51165;-48
2022/11/07 13:12:41;;;;;;;;;19.50;14.00;;;;;;;;5060241;28;51167;-47
2022/11/07 13:15:26;;;;;;;;;9.00;5.50;;;;;;;;5059598;28;51383;-48
2022/11/07 13:18:18;;;;;;;;;15.75;10.75;;;;;;;;5060148;28;51112;-49
2022/11/07 13:21:04;;;;;;;;;15.50;12.00;;;;;;;;5060082;28;51462;-48
2022/11/07 13:23:51;;;;;;;;;15.50;12.75;;;;;;;;5059790;28;51023;-50
2022/11/07 13:26:34;;;;;;;;;13.75;10.00;;;;;;;;5059718;28;51088;-49
2022/11/07 13:29:24;;;;;;;;;9.50;7.50;;;;;;;;5060540;28;51097;-48
2022/11/07 13:32:15;;;;;;;;;17.25;11.00;;;;;;;;5052782;28;51597;-49
2022/11/07 13:34:59;;;;;;;;;15.00;12.00;;;;;;;;5058906;28;51037;-48
2022/11/07 13:37:46;;;;;;;;;13.50;9.50;;;;;;;;5060472;28;51073;-46
2022/11/07 13:40:36;;;;;;;;;10.25;10.25;;;;;;;;5060274;28;51175;-44
2022/11/07 13:43:23;;;;;;;;;18.00;15.25;;;;;;;;5032446;28;51130;-46
2022/11/07 13:46:10;;;;;;;;;8.00;6.00;;;;;;;;5060355;28;51070;-47
2022/11/07 13:48:55;;;;;;;;;14.00;9.25;;;;;;;;5060188;28;51192;-46
2022/11/07 13:51:44;;;;;;;;;18.25;11.50;;;;;;;;5059630;28;51238;-49
2022/11/07 13:54:35;;;;;;;;;17.50;14.00;;;;;;;;5059762;28;51313;-51
2022/11/07 13:57:22;;;;;;;;;22.25;16.00;;;;;;;;5041264;28;51166;-47
2022/11/07 14:00:15;;;;;;;;;17.50;10.75;;;;;;;;5051456;28;51191;-45
2022/11/07 14:03:00;;;;;;;;;18.00;12.00;;;;;;;;5058627;28;50951;-49
2022/11/07 14:05:46;;;;;;;;;16.25;14.25;;;;;;;;5059773;28;51155;-53
2022/11/07 14:08:34;;;;;;;;;21.50;15.00;;;;;;;;5051658;28;51092;-48
2022/11/07 14:11:20;;;;;;;;;18.75;13.25;;;;;;;;5043233;28;51351;-50
2022/11/07 14:14:05;;;;;;;;;20.50;12.00;;;;;;;;5061013;28;51139;-51
2022/11/07 14:16:50;;;;;;;;;17.75;15.75;;;;;;;;5062388;28;51191;-49
2022/11/07 14:19:34;;;;;;;;;23.00;17.75;;;;;;;;5061439;28;51557;-52
2022/11/07 14:22:23;;;;;;;;;15.25;9.75;;;;;;;;5048329;28;51561;-52
2022/11/07 14:25:18;;;;;;;;;21.00;17.75;;;;;;;;5052481;28;51193;-48
2022/11/07 14:28:05;;;;;;;;;19.25;15.75;;;;;;;;5061273;28;51155;-50
2022/11/07 14:30:50;;;;;;;;;17.50;12.75;;;;;;;;5062643;28;51139;-50
2022/11/07 14:33:34;;;;;;;;;16.00;14.75;;;;;;;;5062891;28;51138;-49
2022/11/07 14:36:19;;;;;;;;;17.50;14.25;;;;;;;;5062890;28;51127;-48
2022/11/07 14:39:05;;;;;;;;;17.25;17.25;;;;;;;;5044082;28;51120;-50
2022/11/07 14:41:50;;;;;;;;;26.00;18.00;;;;;;;;5058816;28;51104;-51
2022/11/07 14:44:36;;;;;;;;;21.25;16.75;;;;;;;;5062347;28;50947;-49
2022/11/07 14:47:29;;;;;;;;;20.25;16.75;;;;;;;;5062355;28;51135;-47
2022/11/07 14:50:15;;;;;;;;;19.00;16.25;;;;;;;;5062062;28;51077;-48
2022/11/07 14:53:23;;;;;;;;;34.00;26.50;;;;;;;;5062625;28;51139;-50
2022/11/07 14:56:11;;;;;;;;;17.00;13.50;;;;;;;;5061938;28;51157;-50
2022/11/07 14:58:55;;;;;;;;;19.75;17.00;;;;;;;;5046259;28;51168;-49
2022/11/07 15:01:49;;;;;;;;;15.75;15.75;;;;;;;;5047275;28;51320;-51
2022/11/07 15:04:34;;;;;;;;;26.75;20.00;;;;;;;;5060160;28;51377;-46
2022/11/07 15:07:28;;;;;;;;;11.50;9.25;;;;;;;;5062419;28;51101;-51
2022/11/07 15:10:14;;;;;;;;;9.00;8.25;;;;;;;;5061806;28;51481;-48
2022/11/07 15:13:00;;;;;;;;;18.50;15.50;;;;;;;;5062009;28;51488;-47
2022/11/07 15:15:46;;;;;;;;;21.75;17.25;;;;;;;;5061694;28;51113;-49
2022/11/07 15:18:32;;;;;;;;;22.00;15.75;;;;;;;;5062013;28;51073;-49
2022/11/07 15:21:27;;;;;;;;;18.25;15.75;;;;;;;;5061433;28;51547;-48
2022/11/07 15:24:28;;;;;;;;;17.75;15.50;;;;;;;;5061331;28;51112;-48
2022/11/07 15:27:13;;;;;;;;;19.00;16.50;;;;;;;;5061764;28;51052;-51
2022/11/07 15:29:58;;;;;;;;;14.75;14.25;;;;;;;;5061755;28;51139;-49
2022/11/07 15:32:43;;;;;;;;;19.00;13.25;;;;;;;;5063391;28;51020;-51
2022/11/07 15:35:27;;;;;;;;;18.75;15.25;;;;;;;;5060171;28;51465;-49
2022/11/07 15:38:22;;;;;;;;;18.25;15.75;;;;;;;;5061569;28;51373;-49
2022/11/07 15:41:07;;;;;;;;;17.75;14.75;;;;;;;;5061481;28;51191;-49
2022/11/07 15:43:51;;;;;;;;;21.75;13.75;;;;;;;;5061203;28;51065;-51
2022/11/07 15:46:39;;;;;;;;;17.25;15.00;;;;;;;;5061088;28;51175;-46
2022/11/07 15:49:24;;;;;;;;;22.75;14.50;;;;;;;;5061333;28;51175;-50
2022/11/07 15:52:08;;;;;;;;;16.25;14.25;;;;;;;;5056743;28;51198;-49
2022/11/07 15:54:53;;;;;;;;;18.50;13.25;;;;;;;;5056909;28;51247;-52
2022/11/07 15:57:37;;;;;;;;;16.50;13.00;;;;;;;;5045257;28;51106;-51
2022/11/07 16:00:23;;;;;;;;;18.75;15.75;;;;;;;;5058896;28;51475;-50
2022/11/07 16:03:11;;;;;;;;;13.50;13.50;;;;;;;;5058948;28;51193;-50
2022/11/07 16:05:59;;;;;;;;;23.25;16.25;;;;;;;;5059389;28;51169;-50
2022/11/07 16:08:43;;;;;;;;;18.50;16.00;;;;;;;;5060511;28;51112;-50
2022/11/07 16:11:28;;;;;;;;;22.50;15.25;;;;;;;;5047589;28;51160;-47
2022/11/07 16:14:17;;;;;;;;;17.25;15.00;;;;;;;;5043703;28;51112;-52
2022/11/07 16:17:01;;;;;;;;;18.75;15.25;;;;;;;;5044700;28;51419;-51
2022/11/07 16:19:46;;;;;;;;;20.25;15.25;;;;;;;;5060247;28;51121;-49
2022/11/07 16:22:30;;;;;;;;;16.75;13.00;;;;;;;;5060591;28;51127;-46
2022/11/07 16:25:15;;;;;;;;;20.25;14.25;;;;;;;;5060457;28;51521;-53
2022/11/07 16:28:02;;;;;;;;;18.50;14.50;;;;;;;;5046789;28;51511;-52
2022/11/07 16:30:46;;;;;;;;;21.75;16.25;;;;;;;;5059105;28;51154;-49